sensor_id;sensor_type;location;lat;lon;timestamp;pressure;altitude;pressure_sealevel;temperature;humidity
64192;BME280;50497;50.720;-2.084;2023-10-31T00:01:04;101221.91;;;7.51;100.00
64192;BME280;50497;50.720;-2.084;2023-10-31T00:03:31;101227.31;;;7.48;100.00
64192;BME280;50497;50.720;-2.084;2023-10-31T00:05:56;101245.88;;;7.51;100.00
64192;BME280;50497;50.720;-2.084;2023-10-31T00:08:21;101239.56;;;7.55;100.00
64192;BME280;50497;50.720;-2.084;2023-10-31T00:10:47;101229.91;;;7.51;100.00
64192;BME280;50497;50.720;-2.084;2023-10-31T00:13:12;101252.63;;;7.65;100.00
64192;BME280;50497;50.720;-2.084;2023-10-31T00:15:37;101260.38;;;7.74;100.00
64192;BME280;50497;50.720;-2.084;2023-10-31T00:18:03;101257.63;;;7.77;100.00
64192;BME280;50497;50.720;-2.084;2023-10-31T00:20:28;101265.63;;;7.77;100.00
64192;BME280;50497;50.720;-2.084;2023-10-31T00:22:54;101271.47;;;7.90;100.00
64192;BME280;50497;50.720;-2.084;2023-10-31T00:25:20;101259.34;;;7.78;100.00
64192;BME280;50497;50.720;-2.084;2023-10-31T00:27:45;101263.34;;;7.94;100.00
64192;BME280;50497;50.720;-2.084;2023-10-31T00:30:10;101281.75;;;8.04;100.00
64192;BME280;50497;50.720;-2.084;2023-10-31T00:32:36;101282.50;;;8.09;100.00
64192;BME280;50497;50.720;-2.084;2023-10-31T00:35:01;101292.84;;;8.20;100.00
64192;BME280;50497;50.720;-2.084;2023-10-31T00:37:27;101291.03;;;8.22;100.00
64192;BME280;50497;50.720;-2.084;2023-10-31T00:39:52;101300.59;;;8.29;100.00
64192;BME280;50497;50.720;-2.084;2023-10-31T00:42:18;101299.50;;;8.35;100.00
64192;BME280;50497;50.720;-2.084;2023-10-31T00:44:43;101302.88;;;8.43;100.00
64192;BME280;50497;50.720;-2.084;2023-10-31T00:47:08;101307.94;;;8.52;100.00
64192;BME280;50497;50.720;-2.084;2023-10-31T00:49:34;101296.38;;;8.51;100.00
64192;BME280;50497;50.720;-2.084;2023-10-31T00:51:59;101242.91;;;8.56;100.00
64192;BME280;50497;50.720;-2.084;2023-10-31T00:54:24;101245.44;;;8.61;100.00
64192;BME280;50497;50.720;-2.084;2023-10-31T00:56:50;101248.19;;;8.58;100.00
64192;BME280;50497;50.720;-2.084;2023-10-31T00:59:15;101242.94;;;8.55;100.00
64192;BME280;50497;50.720;-2.084;2023-10-31T01:01:42;101279.16;;;8.63;100.00
64192;BME280;50497;50.720;-2.084;2023-10-31T01:04:07;101264.66;;;8.72;100.00
64192;BME280;50497;50.720;-2.084;2023-10-31T01:06:33;101270.91;;;8.71;100.00
64192;BME280;50497;50.720;-2.084;2023-10-31T01:08:58;101266.16;;;8.81;100.00
64192;BME280;50497;50.720;-2.084;2023-10-31T01:11:24;101260.22;;;8.71;100.00
64192;BME280;50497;50.720;-2.084;2023-10-31T01:13:49;101265.59;;;8.69;100.00
64192;BME280;50497;50.720;-2.084;2023-10-31T01:16:14;101248.16;;;8.59;100.00
64192;BME280;50497;50.720;-2.084;2023-10-31T01:18:40;101253.53;;;8.58;100.00
64192;BME280;50497;50.720;-2.084;2023-10-31T01:21:05;101257.44;;;8.46;100.00
64192;BME280;50497;50.720;-2.084;2023-10-31T01:23:31;101261.41;;;8.62;100.00
64192;BME280;50497;50.720;-2.084;2023-10-31T01:25:56;101278.75;;;8.76;100.00
64192;BME280;50497;50.720;-2.084;2023-10-31T01:28:21;101284.06;;;8.77;100.00
64192;BME280;50497;50.720;-2.084;2023-10-31T01:30:47;101276.28;;;8.69;100.00
64192;BME280;50497;50.720;-2.084;2023-10-31T01:33:12;101276.38;;;8.66;100.00
64192;BME280;50497;50.720;-2.084;2023-10-31T01:35:37;101267.53;;;8.64;100.00
64192;BME280;50497;50.720;-2.084;2023-10-31T01:38:03;101276.44;;;8.65;100.00
64192;BME280;50497;50.720;-2.084;2023-10-31T01:40:28;101290.59;;;8.67;100.00
64192;BME280;50497;50.720;-2.084;2023-10-31T01:42:54;101282.56;;;8.68;100.00
64192;BME280;50497;50.720;-2.084;2023-10-31T01:45:20;101286.03;;;8.71;100.00
64192;BME280;50497;50.720;-2.084;2023-10-31T01:47:47;101282.34;;;8.75;100.00
64192;BME280;50497;50.720;-2.084;2023-10-31T01:50:14;101296.22;;;8.86;100.00
64192;BME280;50497;50.720;-2.084;2023-10-31T01:52:40;101282.69;;;8.92;100.00
64192;BME280;50497;50.720;-2.084;2023-10-31T01:55:06;101278.84;;;9.01;100.00
64192;BME280;50497;50.720;-2.084;2023-10-31T01:57:32;101276.22;;;8.99;100.00
64192;BME280;50497;50.720;-2.084;2023-10-31T01:59:58;101293.78;;;9.08;100.00
64192;BME280;50497;50.720;-2.084;2023-10-31T02:02:25;101272.50;;;9.05;100.00
64192;BME280;50497;50.720;-2.084;2023-10-31T02:04:52;101284.97;;;9.04;100.00
64192;BME280;50497;50.720;-2.084;2023-10-31T02:07:18;101281.09;;;9.15;100.00
64192;BME280;50497;50.720;-2.084;2023-10-31T02:09:43;101281.97;;;9.15;100.00
64192;BME280;50497;50.720;-2.084;2023-10-31T02:12:08;101277.09;;;9.28;100.00
64192;BME280;50497;50.720;-2.084;2023-10-31T02:14:34;101293.06;;;9.30;100.00
64192;BME280;50497;50.720;-2.084;2023-10-31T02:16:59;101276.47;;;9.20;100.00
64192;BME280;50497;50.720;-2.084;2023-10-31T02:19:24;101300.09;;;9.32;100.00
64192;BME280;50497;50.720;-2.084;2023-10-31T02:21:50;101255.78;;;9.27;100.00
64192;BME280;50497;50.720;-2.084;2023-10-31T02:24:15;101243.53;;;9.19;100.00
64192;BME280;50497;50.720;-2.084;2023-10-31T02:26:40;101233.25;;;9.09;100.00
64192;BME280;50497;50.720;-2.084;2023-10-31T02:29:06;101234.97;;;9.10;100.00
64192;BME280;50497;50.720;-2.084;2023-10-31T02:31:32;101209.50;;;8.99;100.00
64192;BME280;50497;50.720;-2.084;2023-10-31T02:33:57;101202.53;;;8.95;100.00
64192;BME280;50497;50.720;-2.084;2023-10-31T02:36:23;101204.16;;;8.99;100.00
64192;BME280;50497;50.720;-2.084;2023-10-31T02:38:48;101209.13;;;9.12;100.00
64192;BME280;50497;50.720;-2.084;2023-10-31T02:41:14;101209.94;;;9.14;100.00
64192;BME280;50497;50.720;-2.084;2023-10-31T02:43:40;101209.94;;;9.14;100.00
64192;BME280;50497;50.720;-2.084;2023-10-31T02:46:06;101186.25;;;9.03;100.00
64192;BME280;50497;50.720;-2.084;2023-10-31T02:48:31;101206.88;;;9.24;100.00
64192;BME280;50497;50.720;-2.084;2023-10-31T02:51:04;101209.41;;;9.29;100.00
64192;BME280;50497;50.720;-2.084;2023-10-31T02:53:29;101181.38;;;9.16;100.00
64192;BME280;50497;50.720;-2.084;2023-10-31T02:55:54;101172.66;;;9.11;100.00
64192;BME280;50497;50.720;-2.084;2023-10-31T02:58:20;101160.50;;;9.02;100.00
64192;BME280;50497;50.720;-2.084;2023-10-31T03:00:45;101158.69;;;9.02;100.00
64192;BME280;50497;50.720;-2.084;2023-10-31T03:03:10;101169.44;;;9.01;100.00
64192;BME280;50497;50.720;-2.084;2023-10-31T03:05:36;101174.41;;;9.12;100.00
64192;BME280;50497;50.720;-2.084;2023-10-31T03:08:01;101176.94;;;9.41;100.00
64192;BME280;50497;50.720;-2.084;2023-10-31T03:10:26;101191.91;;;9.46;100.00
64192;BME280;50497;50.720;-2.084;2023-10-31T03:12:52;101183.19;;;9.40;100.00
64192;BME280;50497;50.720;-2.084;2023-10-31T03:15:17;101183.25;;;9.39;100.00
64192;BME280;50497;50.720;-2.084;2023-10-31T03:17:43;101180.53;;;9.40;100.00
64192;BME280;50497;50.720;-2.084;2023-10-31T03:20:09;101178.00;;;9.36;100.00
64192;BME280;50497;50.720;-2.084;2023-10-31T03:22:34;101169.50;;;9.24;100.00
64192;BME280;50497;50.720;-2.084;2023-10-31T03:25:00;101162.19;;;9.04;100.00
64192;BME280;50497;50.720;-2.084;2023-10-31T03:27:26;101173.31;;;9.17;100.00
64192;BME280;50497;50.720;-2.084;2023-10-31T03:29:51;101179.91;;;9.07;100.00
64192;BME280;50497;50.720;-2.084;2023-10-31T03:32:17;101174.63;;;9.05;100.00
64192;BME280;50497;50.720;-2.084;2023-10-31T03:34:42;101172.19;;;8.98;100.00
64192;BME280;50497;50.720;-2.084;2023-10-31T03:37:07;101119.88;;;8.94;100.00
64192;BME280;50497;50.720;-2.084;2023-10-31T03:39:33;101120.47;;;9.02;100.00
64192;BME280;50497;50.720;-2.084;2023-10-31T03:41:59;101112.19;;;9.10;100.00
64192;BME280;50497;50.720;-2.084;2023-10-31T03:44:24;101131.47;;;9.18;100.00
64192;BME280;50497;50.720;-2.084;2023-10-31T03:46:50;101124.28;;;9.20;100.00
64192;BME280;50497;50.720;-2.084;2023-10-31T03:49:15;101119.81;;;9.20;100.00
64192;BME280;50497;50.720;-2.084;2023-10-31T03:51:40;101127.78;;;9.22;100.00
64192;BME280;50497;50.720;-2.084;2023-10-31T03:54:06;101133.22;;;9.19;100.00
64192;BME280;50497;50.720;-2.084;2023-10-31T03:56:38;101128.03;;;9.14;100.00
64192;BME280;50497;50.720;-2.084;2023-10-31T03:59:04;101139.00;;;9.06;100.00
64192;BME280;50497;50.720;-2.084;2023-10-31T04:01:29;101142.38;;;9.12;100.00
64192;BME280;50497;50.720;-2.084;2023-10-31T04:03:54;101137.16;;;9.09;100.00
64192;BME280;50497;50.720;-2.084;2023-10-31T04:06:19;101126.78;;;8.99;100.00
64192;BME280;50497;50.720;-2.084;2023-10-31T04:08:45;101124.34;;;8.93;100.00
64192;BME280;50497;50.720;-2.084;2023-10-31T04:11:10;101122.59;;;8.92;100.00
64192;BME280;50497;50.720;-2.084;2023-10-31T04:13:35;101108.72;;;8.81;100.00
64192;BME280;50497;50.720;-2.084;2023-10-31T04:16:01;101109.06;;;8.72;100.00
64192;BME280;50497;50.720;-2.084;2023-10-31T04:18:26;101119.78;;;8.70;100.00
64192;BME280;50497;50.720;-2.084;2023-10-31T04:20:52;101118.28;;;8.61;100.00
64192;BME280;50497;50.720;-2.084;2023-10-31T04:23:17;101116.53;;;8.60;100.00
64192;BME280;50497;50.720;-2.084;2023-10-31T04:25:42;101113.16;;;8.55;100.00
64192;BME280;50497;50.720;-2.084;2023-10-31T04:28:08;101108.75;;;8.54;100.00
64192;BME280;50497;50.720;-2.084;2023-10-31T04:30:33;101110.69;;;8.49;100.00
64192;BME280;50497;50.720;-2.084;2023-10-31T04:32:58;101101.22;;;8.39;100.00
64192;BME280;50497;50.720;-2.084;2023-10-31T04:35:23;101112.94;;;8.33;100.00
64192;BME280;50497;50.720;-2.084;2023-10-31T04:37:49;101134.22;;;8.35;100.00
64192;BME280;50497;50.720;-2.084;2023-10-31T04:40:14;101123.78;;;8.28;100.00
64192;BME280;50497;50.720;-2.084;2023-10-31T04:42:40;101127.56;;;8.20;100.00
64192;BME280;50497;50.720;-2.084;2023-10-31T04:45:06;101126.25;;;8.05;100.00
64192;BME280;50497;50.720;-2.084;2023-10-31T04:47:32;101121.78;;;8.07;100.00
64192;BME280;50497;50.720;-2.084;2023-10-31T04:49:57;101112.38;;;7.93;100.00
64192;BME280;50497;50.720;-2.084;2023-10-31T04:52:23;101114.53;;;7.82;100.00
64192;BME280;50497;50.720;-2.084;2023-10-31T04:54:51;101112.69;;;7.84;100.00
64192;BME280;50497;50.720;-2.084;2023-10-31T04:57:16;101102.50;;;7.69;100.00
64192;BME280;50497;50.720;-2.084;2023-10-31T04:59:42;101105.97;;;7.71;100.00
64192;BME280;50497;50.720;-2.084;2023-10-31T05:02:07;101084.28;;;7.53;100.00
64192;BME280;50497;50.720;-2.084;2023-10-31T05:04:32;101115.91;;;7.66;100.00
64192;BME280;50497;50.720;-2.084;2023-10-31T05:06:58;101103.00;;;7.50;100.00
64192;BME280;50497;50.720;-2.084;2023-10-31T05:09:23;101114.47;;;7.54;100.00
64192;BME280;50497;50.720;-2.084;2023-10-31T05:11:48;101115.41;;;7.51;100.00
64192;BME280;50497;50.720;-2.084;2023-10-31T05:14:14;101124.38;;;7.49;100.00
64192;BME280;50497;50.720;-2.084;2023-10-31T05:16:40;101117.38;;;7.45;100.00
64192;BME280;50497;50.720;-2.084;2023-10-31T05:19:06;101113.03;;;7.42;100.00
64192;BME280;50497;50.720;-2.084;2023-10-31T05:21:31;101117.72;;;7.32;100.00
64192;BME280;50497;50.720;-2.084;2023-10-31T05:23:56;101118.56;;;7.34;100.00
64192;BME280;50497;50.720;-2.084;2023-10-31T05:26:22;101118.59;;;7.33;100.00
64192;BME280;50497;50.720;-2.084;2023-10-31T05:28:47;101096.69;;;7.23;100.00
64192;BME280;50497;50.720;-2.084;2023-10-31T05:31:15;101109.13;;;7.22;100.00
64192;BME280;50497;50.720;-2.084;2023-10-31T05:33:40;101106.44;;;7.24;100.00
64192;BME280;50497;50.720;-2.084;2023-10-31T05:36:06;101099.34;;;7.23;100.00
64192;BME280;50497;50.720;-2.084;2023-10-31T05:38:31;101094.72;;;7.30;100.00
64192;BME280;50497;50.720;-2.084;2023-10-31T05:40:56;101100.16;;;7.25;100.00
64192;BME280;50497;50.720;-2.084;2023-10-31T05:43:22;101098.53;;;7.21;100.00
64192;BME280;50497;50.720;-2.084;2023-10-31T05:45:47;101093.44;;;7.12;100.00
64192;BME280;50497;50.720;-2.084;2023-10-31T05:48:13;101097.81;;;7.14;100.00
64192;BME280;50497;50.720;-2.084;2023-10-31T05:50:39;101088.44;;;7.01;100.00
64192;BME280;50497;50.720;-2.084;2023-10-31T05:53:07;101100.53;;;7.13;100.00
64192;BME280;50497;50.720;-2.084;2023-10-31T05:55:32;101115.38;;;7.20;100.00
64192;BME280;50497;50.720;-2.084;2023-10-31T05:57:59;101122.13;;;7.33;100.00
64192;BME280;50497;50.720;-2.084;2023-10-31T06:00:25;101122.66;;;7.46;100.00
64192;BME280;50497;50.720;-2.084;2023-10-31T06:02:51;101132.22;;;7.53;100.00
64192;BME280;50497;50.720;-2.084;2023-10-31T06:05:16;101134.69;;;7.59;100.00
64192;BME280;50497;50.720;-2.084;2023-10-31T06:07:41;101143.25;;;7.71;100.00
64192;BME280;50497;50.720;-2.084;2023-10-31T06:10:07;101146.50;;;7.82;100.00
64192;BME280;50497;50.720;-2.084;2023-10-31T06:12:32;101132.28;;;7.82;100.00
64192;BME280;50497;50.720;-2.084;2023-10-31T06:14:58;101137.38;;;7.89;100.00
64192;BME280;50497;50.720;-2.084;2023-10-31T06:17:23;101143.66;;;7.87;100.00
64192;BME280;50497;50.720;-2.084;2023-10-31T06:19:50;101146.50;;;7.82;100.00
64192;BME280;50497;50.720;-2.084;2023-10-31T06:22:15;101151.94;;;7.77;100.00
64192;BME280;50497;50.720;-2.084;2023-10-31T06:24:41;101136.31;;;7.65;100.00
64192;BME280;50497;50.720;-2.084;2023-10-31T06:27:06;101144.16;;;7.70;100.00
64192;BME280;50497;50.720;-2.084;2023-10-31T06:29:32;101159.31;;;7.68;100.00
64192;BME280;50497;50.720;-2.084;2023-10-31T06:31:57;101149.97;;;7.53;100.00
64192;BME280;50497;50.720;-2.084;2023-10-31T06:34:23;101154.94;;;7.65;100.00
64192;BME280;50497;50.720;-2.084;2023-10-31T06:36:48;101161.16;;;7.66;100.00
64192;BME280;50497;50.720;-2.084;2023-10-31T06:39:13;101152.41;;;7.62;100.00
64192;BME280;50497;50.720;-2.084;2023-10-31T06:41:39;101163.88;;;7.64;100.00
64192;BME280;50497;50.720;-2.084;2023-10-31T06:44:04;101166.50;;;7.66;100.00
64192;BME280;50497;50.720;-2.084;2023-10-31T06:46:30;101169.91;;;7.71;100.00
64192;BME280;50497;50.720;-2.084;2023-10-31T06:48:55;101165.56;;;7.67;100.00
64192;BME280;50497;50.720;-2.084;2023-10-31T06:51:20;101166.56;;;7.63;100.00
64192;BME280;50497;50.720;-2.084;2023-10-31T06:53:46;101171.53;;;7.75;100.00
64192;BME280;50497;50.720;-2.084;2023-10-31T06:56:11;101162.84;;;7.68;100.00
64192;BME280;50497;50.720;-2.084;2023-10-31T06:58:36;101177.75;;;7.75;100.00
64192;BME280;50497;50.720;-2.084;2023-10-31T07:01:02;101172.56;;;7.71;100.00
64192;BME280;50497;50.720;-2.084;2023-10-31T07:03:27;101175.31;;;7.68;100.00
64192;BME280;50497;50.720;-2.084;2023-10-31T07:05:52;101177.16;;;7.66;100.00
64192;BME280;50497;50.720;-2.084;2023-10-31T07:08:18;101169.63;;;7.49;100.00
64192;BME280;50497;50.720;-2.084;2023-10-31T07:10:43;101177.56;;;7.50;100.00
64192;BME280;50497;50.720;-2.084;2023-10-31T07:13:11;101167.97;;;7.45;100.00
64192;BME280;50497;50.720;-2.084;2023-10-31T07:15:37;101176.03;;;7.42;100.00
64192;BME280;50497;50.720;-2.084;2023-10-31T07:18:05;101172.41;;;7.44;100.00
64192;BME280;50497;50.720;-2.084;2023-10-31T07:20:33;101185.38;;;7.56;100.00
64192;BME280;50497;50.720;-2.084;2023-10-31T07:22:58;101183.50;;;7.60;100.00
64192;BME280;50497;50.720;-2.084;2023-10-31T07:25:24;101183.69;;;7.54;100.00
64192;BME280;50497;50.720;-2.084;2023-10-31T07:27:49;101189.88;;;7.54;100.00
64192;BME280;50497;50.720;-2.084;2023-10-31T07:30:18;101193.41;;;7.55;100.00
64192;BME280;50497;50.720;-2.084;2023-10-31T07:32:44;101198.38;;;7.69;100.00
64192;BME280;50497;50.720;-2.084;2023-10-31T07:35:10;101201.69;;;7.77;100.00
64192;BME280;50497;50.720;-2.084;2023-10-31T07:37:35;101214.69;;;7.88;100.00
64192;BME280;50497;50.720;-2.084;2023-10-31T07:40:05;101207.22;;;8.01;100.00
64192;BME280;50497;50.720;-2.084;2023-10-31T07:42:30;101226.41;;;8.13;100.00
64192;BME280;50497;50.720;-2.084;2023-10-31T07:44:56;101215.56;;;8.18;100.00
64192;BME280;50497;50.720;-2.084;2023-10-31T07:47:21;101219.81;;;8.25;100.00
64192;BME280;50497;50.720;-2.084;2023-10-31T07:49:46;101236.94;;;8.48;100.00
64192;BME280;50497;50.720;-2.084;2023-10-31T07:52:13;101252.56;;;8.60;100.00
64192;BME280;50497;50.720;-2.084;2023-10-31T07:54:39;101235.88;;;8.54;100.00
64192;BME280;50497;50.720;-2.084;2023-10-31T07:57:05;101254.94;;;8.69;100.00
64192;BME280;50497;50.720;-2.084;2023-10-31T07:59:33;101243.00;;;8.53;100.00
64192;BME280;50497;50.720;-2.084;2023-10-31T08:01:59;101264.78;;;8.67;100.00
64192;BME280;50497;50.720;-2.084;2023-10-31T08:04:24;101267.22;;;8.75;100.00
64192;BME280;50497;50.720;-2.084;2023-10-31T08:06:50;101276.06;;;8.77;100.00
64192;BME280;50497;50.720;-2.084;2023-10-31T08:09:15;101272.16;;;8.87;100.00
64192;BME280;50497;50.720;-2.084;2023-10-31T08:11:41;101283.50;;;8.94;100.00
64192;BME280;50497;50.720;-2.084;2023-10-31T08:14:07;101284.88;;;9.07;100.00
64192;BME280;50497;50.720;-2.084;2023-10-31T08:16:32;101290.88;;;9.14;100.00
64192;BME280;50497;50.720;-2.084;2023-10-31T08:18:57;101300.84;;;9.36;100.00
64192;BME280;50497;50.720;-2.084;2023-10-31T08:21:23;101306.56;;;9.52;100.00
64192;BME280;50497;50.720;-2.084;2023-10-31T08:23:48;101296.44;;;9.61;100.00
64192;BME280;50497;50.720;-2.084;2023-10-31T08:26:13;101309.50;;;9.69;100.00
64192;BME280;50497;50.720;-2.084;2023-10-31T08:28:39;101305.72;;;9.76;100.00
64192;BME280;50497;50.720;-2.084;2023-10-31T08:31:05;101334.53;;;9.93;100.00
64192;BME280;50497;50.720;-2.084;2023-10-31T08:33:30;101346.88;;;9.96;100.00
64192;BME280;50497;50.720;-2.084;2023-10-31T08:35:55;101347.84;;;9.95;100.00
64192;BME280;50497;50.720;-2.084;2023-10-31T08:38:21;101339.91;;;9.92;100.00
64192;BME280;50497;50.720;-2.084;2023-10-31T08:40:48;101345.91;;;9.98;100.00
64192;BME280;50497;50.720;-2.084;2023-10-31T08:43:14;101361.97;;;10.24;100.00
64192;BME280;50497;50.720;-2.084;2023-10-31T08:45:39;101348.78;;;10.17;100.00
64192;BME280;50497;50.720;-2.084;2023-10-31T08:48:04;101353.41;;;10.39;100.00
64192;BME280;50497;50.720;-2.084;2023-10-31T08:50:30;101352.53;;;10.39;100.00
64192;BME280;50497;50.720;-2.084;2023-10-31T08:52:55;101366.88;;;10.61;100.00
64192;BME280;50497;50.720;-2.084;2023-10-31T08:55:21;101366.28;;;10.77;100.00
64192;BME280;50497;50.720;-2.084;2023-10-31T08:57:46;101379.00;;;10.94;100.00
64192;BME280;50497;50.720;-2.084;2023-10-31T09:00:12;101376.34;;;10.94;100.00
64192;BME280;50497;50.720;-2.084;2023-10-31T09:02:39;101383.84;;;11.07;100.00
64192;BME280;50497;50.720;-2.084;2023-10-31T09:05:04;101395.78;;;11.22;100.00
64192;BME280;50497;50.720;-2.084;2023-10-31T09:07:30;101414.25;;;12.17;100.00
64192;BME280;50497;50.720;-2.084;2023-10-31T09:09:55;101396.50;;;12.13;100.00
64192;BME280;50497;50.720;-2.084;2023-10-31T09:12:21;101414.56;;;12.50;100.00
64192;BME280;50497;50.720;-2.084;2023-10-31T09:14:46;101453.56;;;13.56;100.00
64192;BME280;50497;50.720;-2.084;2023-10-31T09:17:12;101463.59;;;14.25;100.00
64192;BME280;50497;50.720;-2.084;2023-10-31T09:19:38;101457.16;;;14.45;100.00
64192;BME280;50497;50.720;-2.084;2023-10-31T09:22:03;101456.91;;;14.32;100.00
64192;BME280;50497;50.720;-2.084;2023-10-31T09:24:29;101451.53;;;14.85;100.00
64192;BME280;50497;50.720;-2.084;2023-10-31T09:26:54;101469.00;;;15.43;100.00
64192;BME280;50497;50.720;-2.084;2023-10-31T09:29:20;101470.03;;;16.34;100.00
64192;BME280;50497;50.720;-2.084;2023-10-31T09:31:45;101436.78;;;16.48;100.00
64192;BME280;50497;50.720;-2.084;2023-10-31T09:34:12;101375.72;;;17.03;100.00
64192;BME280;50497;50.720;-2.084;2023-10-31T09:36:39;101163.72;;;16.38;100.00
64192;BME280;50497;50.720;-2.084;2023-10-31T09:39:04;100898.19;;;17.28;100.00
64192;BME280;50497;50.720;-2.084;2023-10-31T09:41:30;100657.72;;;17.49;100.00
64192;BME280;50497;50.720;-2.084;2023-10-31T09:43:57;100549.16;;;17.42;100.00
64192;BME280;50497;50.720;-2.084;2023-10-31T09:46:22;100469.09;;;16.94;100.00
64192;BME280;50497;50.720;-2.084;2023-10-31T09:48:49;100351.56;;;16.89;100.00
64192;BME280;50497;50.720;-2.084;2023-10-31T09:51:14;100334.69;;;17.63;100.00
64192;BME280;50497;50.720;-2.084;2023-10-31T09:53:41;100539.22;;;18.43;100.00
64192;BME280;50497;50.720;-2.084;2023-10-31T09:56:07;100926.91;;;19.42;100.00
64192;BME280;50497;50.720;-2.084;2023-10-31T09:58:33;100879.66;;;17.96;100.00
64192;BME280;50497;50.720;-2.084;2023-10-31T10:00:58;100698.78;;;18.23;100.00
64192;BME280;50497;50.720;-2.084;2023-10-31T10:03:24;100599.44;;;18.68;100.00
64192;BME280;50497;50.720;-2.084;2023-10-31T10:05:49;100533.91;;;19.06;100.00
64192;BME280;50497;50.720;-2.084;2023-10-31T10:08:15;100550.75;;;18.77;100.00
64192;BME280;50497;50.720;-2.084;2023-10-31T10:10:41;100567.44;;;19.57;100.00
64192;BME280;50497;50.720;-2.084;2023-10-31T10:13:06;100579.53;;;19.74;100.00
64192;BME280;50497;50.720;-2.084;2023-10-31T10:15:49;100601.69;;;19.06;100.00
64192;BME280;50497;50.720;-2.084;2023-10-31T10:18:24;100607.91;;;19.91;100.00
64192;BME280;50497;50.720;-2.084;2023-10-31T10:20:56;100663.63;;;19.11;100.00
64192;BME280;50497;50.720;-2.084;2023-10-31T10:23:22;100683.28;;;18.48;100.00
64192;BME280;50497;50.720;-2.084;2023-10-31T10:25:48;100698.75;;;18.57;100.00
64192;BME280;50497;50.720;-2.084;2023-10-31T10:28:14;100701.94;;;18.85;100.00
64192;BME280;50497;50.720;-2.084;2023-10-31T10:30:39;100712.03;;;19.27;100.00
64192;BME280;50497;50.720;-2.084;2023-10-31T10:33:05;100743.13;;;18.45;100.00
64192;BME280;50497;50.720;-2.084;2023-10-31T10:35:30;100739.75;;;18.64;100.00
64192;BME280;50497;50.720;-2.084;2023-10-31T10:37:56;100744.72;;;19.57;100.00
64192;BME280;50497;50.720;-2.084;2023-10-31T10:40:21;100761.06;;;18.69;100.00
64192;BME280;50497;50.720;-2.084;2023-10-31T10:42:47;100755.47;;;19.48;100.00
64192;BME280;50497;50.720;-2.084;2023-10-31T10:45:13;100783.03;;;19.32;100.00
64192;BME280;50497;50.720;-2.084;2023-10-31T10:47:40;100755.78;;;19.33;100.00
64192;BME280;50497;50.720;-2.084;2023-10-31T10:50:06;100760.50;;;19.85;100.00
64192;BME280;50497;50.720;-2.084;2023-10-31T10:52:38;100784.44;;;19.47;100.00
64192;BME280;50497;50.720;-2.084;2023-10-31T10:55:20;100795.59;;;19.98;100.00
64192;BME280;50497;50.720;-2.084;2023-10-31T10:58:09;100802.69;;;19.89;100.00
64192;BME280;50497;50.720;-2.084;2023-10-31T11:00:38;100834.56;;;17.83;100.00
64192;BME280;50497;50.720;-2.084;2023-10-31T11:03:05;100773.75;;;17.76;100.00
64192;BME280;50497;50.720;-2.084;2023-10-31T11:05:31;100749.13;;;18.03;100.00
64192;BME280;50497;50.720;-2.084;2023-10-31T11:07:57;100722.38;;;18.78;100.00
64192;BME280;50497;50.720;-2.084;2023-10-31T11:10:22;100730.84;;;19.39;100.00
64192;BME280;50497;50.720;-2.084;2023-10-31T11:12:48;100761.28;;;19.75;100.00
64192;BME280;50497;50.720;-2.084;2023-10-31T11:15:14;100769.28;;;19.98;100.00
64192;BME280;50497;50.720;-2.084;2023-10-31T11:17:40;100791.16;;;20.18;100.00
64192;BME280;50497;50.720;-2.084;2023-10-31T11:20:07;100801.50;;;19.70;100.00
64192;BME280;50497;50.720;-2.084;2023-10-31T11:22:39;100803.09;;;18.63;100.00
64192;BME280;50497;50.720;-2.084;2023-10-31T11:25:09;100758.34;;;19.67;100.00
64192;BME280;50497;50.720;-2.084;2023-10-31T11:27:34;100812.94;;;18.53;100.00
64192;BME280;50497;50.720;-2.084;2023-10-31T11:30:06;100768.22;;;16.94;100.00
64192;BME280;50497;50.720;-2.084;2023-10-31T11:32:32;100720.84;;;17.25;100.00
64192;BME280;50497;50.720;-2.084;2023-10-31T11:34:58;100700.88;;;16.78;100.00
64192;BME280;50497;50.720;-2.084;2023-10-31T11:37:31;100704.84;;;16.61;100.00
64192;BME280;50497;50.720;-2.084;2023-10-31T11:42:43;100661.75;;;16.22;100.00
64192;BME280;50497;50.720;-2.084;2023-10-31T11:45:11;100660.25;;;16.05;100.00
64192;BME280;50497;50.720;-2.084;2023-10-31T11:47:49;100655.53;;;16.33;100.00
64192;BME280;50497;50.720;-2.084;2023-10-31T11:50:15;100626.84;;;16.32;100.00
64192;BME280;50497;50.720;-2.084;2023-10-31T11:52:40;100625.38;;;16.52;100.00
64192;BME280;50497;50.720;-2.084;2023-10-31T11:55:09;100624.13;;;16.32;100.00
64192;BME280;50497;50.720;-2.084;2023-10-31T11:57:35;100615.44;;;16.40;100.00
64192;BME280;50497;50.720;-2.084;2023-10-31T12:00:02;100619.06;;;16.89;100.00
64192;BME280;50497;50.720;-2.084;2023-10-31T12:02:29;100603.56;;;16.67;100.00
64192;BME280;50497;50.720;-2.084;2023-10-31T12:05:10;100612.53;;;16.43;100.00
64192;BME280;50497;50.720;-2.084;2023-10-31T12:07:47;100604.25;;;16.33;100.00
64192;BME280;50497;50.720;-2.084;2023-10-31T12:10:25;100596.44;;;16.04;100.00
64192;BME280;50497;50.720;-2.084;2023-10-31T12:12:52;100579.59;;;16.14;100.00
64192;BME280;50497;50.720;-2.084;2023-10-31T12:15:18;100573.06;;;15.92;100.00
64192;BME280;50497;50.720;-2.084;2023-10-31T12:17:43;100571.78;;;15.59;100.00
64192;BME280;50497;50.720;-2.084;2023-10-31T12:20:09;100553.22;;;15.55;100.00
64192;BME280;50497;50.720;-2.084;2023-10-31T12:22:34;100548.47;;;15.58;100.00
64192;BME280;50497;50.720;-2.084;2023-10-31T12:25:03;100529.97;;;15.41;100.00
64192;BME280;50497;50.720;-2.084;2023-10-31T12:27:48;100513.78;;;15.41;100.00
64192;BME280;50497;50.720;-2.084;2023-10-31T12:30:18;100514.00;;;15.25;100.00
64192;BME280;50497;50.720;-2.084;2023-10-31T12:32:44;100496.75;;;15.02;100.00
64192;BME280;50497;50.720;-2.084;2023-10-31T12:35:16;100497.28;;;15.07;100.00